American Falls, Idaho
Current Conditions -  °F | °C
As of 4:53 AM on Saturday 20 Dec 2014 (Local Time) from KPIH Reporting Station
Overcast Overcast  
Wind Chill: 30°   Ceiling: 7500
Heat Index: 36°   Visibility: 10mi
Dew Point: 33°   Wind: 7mph
Humidity: 89%   Direction: 200°SSW
Pressure: 30.06"   Gusts: NA
Location:  42.79°N, 112.85°W
Report Text: KPIH 201153Z AUTO 20006KT 10SM OVC075 02/01 A3006 RMK AO2 SLP192 60001 70002 T00220006 10033 20017 58009
Loading
Personal Weather Stations






























Interactive Weather Map New forecast layout! Learn more

10-Day Weather Forecast

Advertisements
Track Severe Weather on mobile